sensor_id;sensor_type;location;lat;lon;timestamp;P1;durP1;ratioP1;P2;durP2;ratioP2
5961;SDS011;3007;50.770;0.250;2023-06-22T00:01:17;9.93;;;8.60;;
5961;SDS011;3007;50.770;0.250;2023-06-22T00:03:45;12.97;;;10.23;;
5961;SDS011;3007;50.770;0.250;2023-06-22T00:06:12;9.87;;;8.87;;
5961;SDS011;3007;50.770;0.250;2023-06-22T00:08:39;11.10;;;9.13;;
5961;SDS011;3007;50.770;0.250;2023-06-22T00:11:06;11.43;;;8.20;;
5961;SDS011;3007;50.770;0.250;2023-06-22T00:13:32;13.20;;;8.90;;
5961;SDS011;3007;50.770;0.250;2023-06-22T00:15:59;13.90;;;10.07;;
5961;SDS011;3007;50.770;0.250;2023-06-22T00:18:27;11.30;;;9.50;;
5961;SDS011;3007;50.770;0.250;2023-06-22T00:20:57;13.80;;;10.23;;
5961;SDS011;3007;50.770;0.250;2023-06-22T00:23:24;12.90;;;9.60;;
5961;SDS011;3007;50.770;0.250;2023-06-22T00:25:51;14.43;;;10.20;;
5961;SDS011;3007;50.770;0.250;2023-06-22T00:28:18;11.93;;;8.23;;
5961;SDS011;3007;50.770;0.250;2023-06-22T00:30:45;13.00;;;9.87;;
5961;SDS011;3007;50.770;0.250;2023-06-22T00:33:12;13.37;;;9.70;;
5961;SDS011;3007;50.770;0.250;2023-06-22T00:35:41;10.37;;;8.63;;
5961;SDS011;3007;50.770;0.250;2023-06-22T00:38:09;10.50;;;8.60;;
5961;SDS011;3007;50.770;0.250;2023-06-22T00:40:36;9.50;;;7.87;;
5961;SDS011;3007;50.770;0.250;2023-06-22T00:43:03;13.00;;;8.43;;
5961;SDS011;3007;50.770;0.250;2023-06-22T00:45:30;12.23;;;9.10;;
5961;SDS011;3007;50.770;0.250;2023-06-22T00:47:57;9.47;;;8.37;;
5961;SDS011;3007;50.770;0.250;2023-06-22T00:50:26;10.57;;;8.87;;
5961;SDS011;3007;50.770;0.250;2023-06-22T00:52:54;14.50;;;10.00;;
5961;SDS011;3007;50.770;0.250;2023-06-22T00:55:25;10.20;;;8.47;;
5961;SDS011;3007;50.770;0.250;2023-06-22T00:57:53;11.20;;;7.93;;
5961;SDS011;3007;50.770;0.250;2023-06-22T01:00:23;8.93;;;8.10;;
5961;SDS011;3007;50.770;0.250;2023-06-22T01:02:51;10.60;;;8.77;;
5961;SDS011;3007;50.770;0.250;2023-06-22T01:05:19;12.20;;;9.33;;
5961;SDS011;3007;50.770;0.250;2023-06-22T01:07:51;9.97;;;8.20;;
5961;SDS011;3007;50.770;0.250;2023-06-22T01:10:27;11.53;;;8.83;;
5961;SDS011;3007;50.770;0.250;2023-06-22T01:13:02;10.50;;;8.57;;
5961;SDS011;3007;50.770;0.250;2023-06-22T01:15:35;9.13;;;7.97;;
5961;SDS011;3007;50.770;0.250;2023-06-22T01:18:05;8.93;;;7.20;;
5961;SDS011;3007;50.770;0.250;2023-06-22T01:20:35;9.83;;;7.33;;
5961;SDS011;3007;50.770;0.250;2023-06-22T01:23:05;8.60;;;7.23;;
5961;SDS011;3007;50.770;0.250;2023-06-22T01:25:41;13.37;;;8.63;;
5961;SDS011;3007;50.770;0.250;2023-06-22T01:28:17;14.40;;;9.47;;
5961;SDS011;3007;50.770;0.250;2023-06-22T01:30:53;11.67;;;9.17;;
5961;SDS011;3007;50.770;0.250;2023-06-22T01:33:28;14.03;;;9.97;;
5961;SDS011;3007;50.770;0.250;2023-06-22T01:35:56;10.30;;;9.30;;
5961;SDS011;3007;50.770;0.250;2023-06-22T01:38:23;14.27;;;9.63;;
5961;SDS011;3007;50.770;0.250;2023-06-22T01:40:51;10.87;;;9.50;;
5961;SDS011;3007;50.770;0.250;2023-06-22T01:43:19;14.27;;;9.40;;
5961;SDS011;3007;50.770;0.250;2023-06-22T01:45:48;11.60;;;9.97;;
5961;SDS011;3007;50.770;0.250;2023-06-22T01:48:16;16.07;;;11.87;;
5961;SDS011;3007;50.770;0.250;2023-06-22T01:50:44;16.63;;;11.57;;
5961;SDS011;3007;50.770;0.250;2023-06-22T01:53:11;10.13;;;9.10;;
5961;SDS011;3007;50.770;0.250;2023-06-22T01:55:38;13.40;;;11.33;;
5961;SDS011;3007;50.770;0.250;2023-06-22T01:58:05;11.97;;;10.73;;
5961;SDS011;3007;50.770;0.250;2023-06-22T02:00:33;18.03;;;13.10;;
5961;SDS011;3007;50.770;0.250;2023-06-22T02:03:05;20.17;;;14.40;;
5961;SDS011;3007;50.770;0.250;2023-06-22T02:05:38;15.23;;;12.03;;
5961;SDS011;3007;50.770;0.250;2023-06-22T02:08:21;13.90;;;10.77;;
5961;SDS011;3007;50.770;0.250;2023-06-22T02:10:51;15.83;;;12.57;;
5961;SDS011;3007;50.770;0.250;2023-06-22T02:13:20;15.13;;;11.97;;
5961;SDS011;3007;50.770;0.250;2023-06-22T02:15:47;17.53;;;11.53;;
5961;SDS011;3007;50.770;0.250;2023-06-22T02:18:14;17.57;;;12.33;;
5961;SDS011;3007;50.770;0.250;2023-06-22T02:20:43;14.40;;;10.50;;
5961;SDS011;3007;50.770;0.250;2023-06-22T02:23:10;14.80;;;10.33;;
5961;SDS011;3007;50.770;0.250;2023-06-22T02:25:37;14.87;;;10.97;;
5961;SDS011;3007;50.770;0.250;2023-06-22T02:28:04;13.87;;;10.73;;
5961;SDS011;3007;50.770;0.250;2023-06-22T02:30:31;12.07;;;10.67;;
5961;SDS011;3007;50.770;0.250;2023-06-22T02:32:58;12.90;;;10.07;;
5961;SDS011;3007;50.770;0.250;2023-06-22T02:35:25;13.03;;;9.27;;
5961;SDS011;3007;50.770;0.250;2023-06-22T02:37:57;13.23;;;8.53;;
5961;SDS011;3007;50.770;0.250;2023-06-22T02:40:25;8.87;;;7.20;;
5961;SDS011;3007;50.770;0.250;2023-06-22T02:42:52;8.63;;;7.83;;
5961;SDS011;3007;50.770;0.250;2023-06-22T02:45:19;11.80;;;8.20;;
5961;SDS011;3007;50.770;0.250;2023-06-22T02:47:46;7.73;;;6.93;;
5961;SDS011;3007;50.770;0.250;2023-06-22T02:50:13;13.00;;;8.90;;
5961;SDS011;3007;50.770;0.250;2023-06-22T02:52:40;10.83;;;8.07;;
5961;SDS011;3007;50.770;0.250;2023-06-22T02:55:09;10.53;;;9.40;;
5961;SDS011;3007;50.770;0.250;2023-06-22T02:57:36;12.97;;;11.23;;
5961;SDS011;3007;50.770;0.250;2023-06-22T03:00:09;19.63;;;12.67;;
5961;SDS011;3007;50.770;0.250;2023-06-22T03:02:42;16.93;;;12.67;;
5961;SDS011;3007;50.770;0.250;2023-06-22T03:05:09;15.47;;;12.37;;
5961;SDS011;3007;50.770;0.250;2023-06-22T03:07:38;16.13;;;12.17;;
5961;SDS011;3007;50.770;0.250;2023-06-22T03:10:06;19.03;;;14.30;;
5961;SDS011;3007;50.770;0.250;2023-06-22T03:12:35;20.83;;;14.13;;
5961;SDS011;3007;50.770;0.250;2023-06-22T03:15:04;18.20;;;12.93;;
5961;SDS011;3007;50.770;0.250;2023-06-22T03:17:31;16.00;;;12.20;;
5961;SDS011;3007;50.770;0.250;2023-06-22T03:19:59;18.47;;;12.23;;
5961;SDS011;3007;50.770;0.250;2023-06-22T03:22:26;17.20;;;13.60;;
5961;SDS011;3007;50.770;0.250;2023-06-22T03:24:53;18.63;;;14.30;;
5961;SDS011;3007;50.770;0.250;2023-06-22T03:27:21;21.07;;;14.13;;
5961;SDS011;3007;50.770;0.250;2023-06-22T03:29:48;20.30;;;14.97;;
5961;SDS011;3007;50.770;0.250;2023-06-22T03:32:14;18.13;;;14.40;;
5961;SDS011;3007;50.770;0.250;2023-06-22T03:34:41;21.73;;;15.43;;
5961;SDS011;3007;50.770;0.250;2023-06-22T03:37:12;22.17;;;14.40;;
5961;SDS011;3007;50.770;0.250;2023-06-22T03:39:39;19.13;;;15.33;;
5961;SDS011;3007;50.770;0.250;2023-06-22T03:42:07;23.47;;;15.70;;
5961;SDS011;3007;50.770;0.250;2023-06-22T03:44:35;22.43;;;16.27;;
5961;SDS011;3007;50.770;0.250;2023-06-22T03:47:02;24.23;;;16.90;;
5961;SDS011;3007;50.770;0.250;2023-06-22T03:49:32;21.73;;;16.80;;
5961;SDS011;3007;50.770;0.250;2023-06-22T03:51:59;20.87;;;16.80;;
5961;SDS011;3007;50.770;0.250;2023-06-22T03:54:26;29.80;;;18.10;;
5961;SDS011;3007;50.770;0.250;2023-06-22T03:56:53;24.43;;;15.90;;
5961;SDS011;3007;50.770;0.250;2023-06-22T03:59:20;21.30;;;15.27;;
5961;SDS011;3007;50.770;0.250;2023-06-22T04:01:48;29.43;;;19.87;;
5961;SDS011;3007;50.770;0.250;2023-06-22T04:04:15;25.93;;;17.83;;
5961;SDS011;3007;50.770;0.250;2023-06-22T04:06:42;24.33;;;16.20;;
5961;SDS011;3007;50.770;0.250;2023-06-22T04:09:09;16.87;;;13.87;;
5961;SDS011;3007;50.770;0.250;2023-06-22T04:11:36;18.17;;;13.90;;
5961;SDS011;3007;50.770;0.250;2023-06-22T04:14:03;18.37;;;14.27;;
5961;SDS011;3007;50.770;0.250;2023-06-22T04:16:30;20.13;;;14.20;;
5961;SDS011;3007;50.770;0.250;2023-06-22T04:18:58;19.97;;;13.50;;
5961;SDS011;3007;50.770;0.250;2023-06-22T04:21:25;17.87;;;13.80;;
5961;SDS011;3007;50.770;0.250;2023-06-22T04:23:52;16.77;;;13.07;;
5961;SDS011;3007;50.770;0.250;2023-06-22T04:26:18;20.83;;;14.93;;
5961;SDS011;3007;50.770;0.250;2023-06-22T04:28:46;22.50;;;14.57;;
5961;SDS011;3007;50.770;0.250;2023-06-22T04:31:16;18.43;;;13.53;;
5961;SDS011;3007;50.770;0.250;2023-06-22T04:33:44;17.85;;;12.07;;
5961;SDS011;3007;50.770;0.250;2023-06-22T04:36:12;15.75;;;12.32;;
5961;SDS011;3007;50.770;0.250;2023-06-22T04:38:39;12.43;;;10.55;;
5961;SDS011;3007;50.770;0.250;2023-06-22T04:41:07;14.40;;;10.55;;
5961;SDS011;3007;50.770;0.250;2023-06-22T04:43:39;12.57;;;10.02;;
5961;SDS011;3007;50.770;0.250;2023-06-22T04:46:06;11.23;;;9.43;;
5961;SDS011;3007;50.770;0.250;2023-06-22T04:48:33;9.20;;;8.30;;
5961;SDS011;3007;50.770;0.250;2023-06-22T04:50:59;8.60;;;7.60;;
5961;SDS011;3007;50.770;0.250;2023-06-22T04:53:30;9.65;;;7.80;;
5961;SDS011;3007;50.770;0.250;2023-06-22T04:55:57;7.72;;;6.95;;
5961;SDS011;3007;50.770;0.250;2023-06-22T04:58:24;8.52;;;6.72;;
5961;SDS011;3007;50.770;0.250;2023-06-22T05:00:53;12.80;;;10.07;;
5961;SDS011;3007;50.770;0.250;2023-06-22T05:03:22;13.60;;;11.77;;
5961;SDS011;3007;50.770;0.250;2023-06-22T05:05:52;16.10;;;11.73;;
5961;SDS011;3007;50.770;0.250;2023-06-22T05:08:18;13.25;;;11.57;;
5961;SDS011;3007;50.770;0.250;2023-06-22T05:10:47;11.63;;;10.27;;
5961;SDS011;3007;50.770;0.250;2023-06-22T05:13:13;12.23;;;10.50;;
5961;SDS011;3007;50.770;0.250;2023-06-22T05:15:40;10.82;;;9.73;;
5961;SDS011;3007;50.770;0.250;2023-06-22T05:18:07;11.25;;;10.10;;
5961;SDS011;3007;50.770;0.250;2023-06-22T05:20:34;11.05;;;9.98;;
5961;SDS011;3007;50.770;0.250;2023-06-22T05:23:01;7.85;;;7.05;;
5961;SDS011;3007;50.770;0.250;2023-06-22T05:25:28;9.07;;;8.18;;
5961;SDS011;3007;50.770;0.250;2023-06-22T05:27:59;11.27;;;7.15;;
5961;SDS011;3007;50.770;0.250;2023-06-22T05:30:25;6.75;;;6.03;;
5961;SDS011;3007;50.770;0.250;2023-06-22T05:32:53;8.27;;;6.57;;
5961;SDS011;3007;50.770;0.250;2023-06-22T05:35:20;7.80;;;7.00;;
5961;SDS011;3007;50.770;0.250;2023-06-22T05:37:47;8.77;;;7.55;;
5961;SDS011;3007;50.770;0.250;2023-06-22T05:40:14;9.45;;;6.53;;
5961;SDS011;3007;50.770;0.250;2023-06-22T05:42:41;6.95;;;5.97;;
5961;SDS011;3007;50.770;0.250;2023-06-22T05:45:09;7.20;;;6.50;;
5961;SDS011;3007;50.770;0.250;2023-06-22T05:47:36;9.70;;;7.35;;
5961;SDS011;3007;50.770;0.250;2023-06-22T05:50:03;8.05;;;6.82;;
5961;SDS011;3007;50.770;0.250;2023-06-22T05:52:33;8.30;;;7.50;;
5961;SDS011;3007;50.770;0.250;2023-06-22T05:55:00;8.05;;;6.25;;
5961;SDS011;3007;50.770;0.250;2023-06-22T05:57:27;8.20;;;6.88;;
5961;SDS011;3007;50.770;0.250;2023-06-22T05:59:54;7.20;;;6.03;;
5961;SDS011;3007;50.770;0.250;2023-06-22T06:02:23;8.52;;;7.07;;
5961;SDS011;3007;50.770;0.250;2023-06-22T06:04:50;7.95;;;6.68;;
5961;SDS011;3007;50.770;0.250;2023-06-22T06:07:17;8.00;;;7.05;;
5961;SDS011;3007;50.770;0.250;2023-06-22T06:09:44;7.57;;;6.50;;
5961;SDS011;3007;50.770;0.250;2023-06-22T06:12:11;7.00;;;6.30;;
5961;SDS011;3007;50.770;0.250;2023-06-22T06:14:38;8.73;;;6.70;;
5961;SDS011;3007;50.770;0.250;2023-06-22T06:17:05;8.30;;;6.28;;
5961;SDS011;3007;50.770;0.250;2023-06-22T06:19:34;8.68;;;6.95;;
5961;SDS011;3007;50.770;0.250;2023-06-22T06:22:00;7.88;;;6.68;;
5961;SDS011;3007;50.770;0.250;2023-06-22T06:24:28;6.78;;;6.07;;
5961;SDS011;3007;50.770;0.250;2023-06-22T06:26:54;6.57;;;5.88;;
5961;SDS011;3007;50.770;0.250;2023-06-22T06:29:22;7.72;;;6.80;;
5961;SDS011;3007;50.770;0.250;2023-06-22T06:31:49;6.85;;;6.18;;
5961;SDS011;3007;50.770;0.250;2023-06-22T06:34:16;7.88;;;6.50;;
5961;SDS011;3007;50.770;0.250;2023-06-22T06:36:44;7.75;;;5.85;;
5961;SDS011;3007;50.770;0.250;2023-06-22T06:39:11;10.93;;;6.82;;
5961;SDS011;3007;50.770;0.250;2023-06-22T06:41:38;7.60;;;5.63;;
5961;SDS011;3007;50.770;0.250;2023-06-22T06:44:05;8.30;;;5.90;;
5961;SDS011;3007;50.770;0.250;2023-06-22T06:46:32;5.50;;;5.00;;
5961;SDS011;3007;50.770;0.250;2023-06-22T06:48:58;6.85;;;5.38;;
5961;SDS011;3007;50.770;0.250;2023-06-22T06:51:25;6.85;;;6.15;;
5961;SDS011;3007;50.770;0.250;2023-06-22T06:53:53;6.25;;;5.65;;
5961;SDS011;3007;50.770;0.250;2023-06-22T06:56:20;5.82;;;5.18;;
5961;SDS011;3007;50.770;0.250;2023-06-22T06:58:49;6.65;;;5.13;;
5961;SDS011;3007;50.770;0.250;2023-06-22T07:01:17;6.03;;;5.10;;
5961;SDS011;3007;50.770;0.250;2023-06-22T07:03:44;5.30;;;4.50;;
5961;SDS011;3007;50.770;0.250;2023-06-22T07:06:12;5.15;;;4.55;;
5961;SDS011;3007;50.770;0.250;2023-06-22T07:08:39;5.70;;;5.10;;
5961;SDS011;3007;50.770;0.250;2023-06-22T07:11:08;7.40;;;5.70;;
5961;SDS011;3007;50.770;0.250;2023-06-22T07:13:34;6.18;;;4.72;;
5961;SDS011;3007;50.770;0.250;2023-06-22T07:16:01;7.28;;;5.05;;
5961;SDS011;3007;50.770;0.250;2023-06-22T07:18:28;4.47;;;4.07;;
5961;SDS011;3007;50.770;0.250;2023-06-22T07:20:55;9.00;;;4.38;;
5961;SDS011;3007;50.770;0.250;2023-06-22T07:23:22;4.70;;;4.22;;
5961;SDS011;3007;50.770;0.250;2023-06-22T07:25:49;4.32;;;3.85;;
5961;SDS011;3007;50.770;0.250;2023-06-22T07:28:17;4.97;;;3.85;;
5961;SDS011;3007;50.770;0.250;2023-06-22T07:30:44;5.18;;;4.45;;
5961;SDS011;3007;50.770;0.250;2023-06-22T07:33:12;9.52;;;5.07;;
5961;SDS011;3007;50.770;0.250;2023-06-22T07:35:39;4.95;;;4.10;;
5961;SDS011;3007;50.770;0.250;2023-06-22T07:38:05;6.13;;;4.28;;
5961;SDS011;3007;50.770;0.250;2023-06-22T07:40:34;7.53;;;3.60;;
5961;SDS011;3007;50.770;0.250;2023-06-22T07:43:01;4.22;;;3.83;;
5961;SDS011;3007;50.770;0.250;2023-06-22T07:45:29;4.22;;;3.70;;
5961;SDS011;3007;50.770;0.250;2023-06-22T07:47:58;11.25;;;4.28;;
5961;SDS011;3007;50.770;0.250;2023-06-22T07:50:25;6.60;;;3.83;;
5961;SDS011;3007;50.770;0.250;2023-06-22T07:52:52;4.53;;;3.47;;
5961;SDS011;3007;50.770;0.250;2023-06-22T07:55:19;3.88;;;3.40;;
5961;SDS011;3007;50.770;0.250;2023-06-22T07:57:46;9.60;;;3.80;;
5961;SDS011;3007;50.770;0.250;2023-06-22T08:00:17;4.70;;;3.35;;
5961;SDS011;3007;50.770;0.250;2023-06-22T08:02:46;4.03;;;3.20;;
5961;SDS011;3007;50.770;0.250;2023-06-22T08:05:14;4.15;;;3.30;;
5961;SDS011;3007;50.770;0.250;2023-06-22T08:07:42;4.07;;;3.28;;
5961;SDS011;3007;50.770;0.250;2023-06-22T08:10:10;4.35;;;3.20;;
5961;SDS011;3007;50.770;0.250;2023-06-22T08:12:37;3.90;;;2.92;;
5961;SDS011;3007;50.770;0.250;2023-06-22T08:15:05;7.80;;;3.28;;
5961;SDS011;3007;50.770;0.250;2023-06-22T08:17:34;4.57;;;3.55;;
5961;SDS011;3007;50.770;0.250;2023-06-22T08:20:04;3.63;;;3.10;;
5961;SDS011;3007;50.770;0.250;2023-06-22T08:22:34;3.53;;;2.70;;
5961;SDS011;3007;50.770;0.250;2023-06-22T08:25:01;3.22;;;2.67;;
5961;SDS011;3007;50.770;0.250;2023-06-22T08:27:29;4.10;;;2.63;;
5961;SDS011;3007;50.770;0.250;2023-06-22T08:29:58;3.28;;;2.63;;
5961;SDS011;3007;50.770;0.250;2023-06-22T08:32:25;4.82;;;2.90;;
5961;SDS011;3007;50.770;0.250;2023-06-22T08:34:52;11.05;;;3.65;;
5961;SDS011;3007;50.770;0.250;2023-06-22T08:37:20;2.85;;;2.50;;
5961;SDS011;3007;50.770;0.250;2023-06-22T08:39:55;5.32;;;2.88;;
5961;SDS011;3007;50.770;0.250;2023-06-22T08:42:22;2.92;;;2.63;;
5961;SDS011;3007;50.770;0.250;2023-06-22T08:44:50;3.47;;;2.67;;
5961;SDS011;3007;50.770;0.250;2023-06-22T08:47:17;3.40;;;2.63;;
5961;SDS011;3007;50.770;0.250;2023-06-22T08:49:44;9.32;;;2.97;;
5961;SDS011;3007;50.770;0.250;2023-06-22T08:52:12;3.05;;;2.75;;
5961;SDS011;3007;50.770;0.250;2023-06-22T08:54:40;3.80;;;3.40;;
5961;SDS011;3007;50.770;0.250;2023-06-22T08:57:07;4.75;;;3.05;;
5961;SDS011;3007;50.770;0.250;2023-06-22T08:59:34;3.97;;;3.20;;
5961;SDS011;3007;50.770;0.250;2023-06-22T09:02:01;3.92;;;3.13;;
5961;SDS011;3007;50.770;0.250;2023-06-22T09:04:28;3.78;;;3.40;;
5961;SDS011;3007;50.770;0.250;2023-06-22T09:06:55;4.18;;;3.28;;
5961;SDS011;3007;50.770;0.250;2023-06-22T09:09:22;3.22;;;2.67;;
5961;SDS011;3007;50.770;0.250;2023-06-22T09:11:50;2.72;;;2.53;;
5961;SDS011;3007;50.770;0.250;2023-06-22T09:14:17;3.38;;;2.30;;
5961;SDS011;3007;50.770;0.250;2023-06-22T09:16:44;3.05;;;2.10;;
5961;SDS011;3007;50.770;0.250;2023-06-22T09:19:11;2.95;;;2.00;;
5961;SDS011;3007;50.770;0.250;2023-06-22T09:21:38;2.05;;;1.73;;
5961;SDS011;3007;50.770;0.250;2023-06-22T09:24:05;2.70;;;2.50;;
5961;SDS011;3007;50.770;0.250;2023-06-22T09:26:33;2.30;;;2.10;;
5961;SDS011;3007;50.770;0.250;2023-06-22T09:29:01;4.68;;;2.75;;
5961;SDS011;3007;50.770;0.250;2023-06-22T09:31:30;3.10;;;2.80;;
5961;SDS011;3007;50.770;0.250;2023-06-22T09:33:57;5.18;;;3.15;;
5961;SDS011;3007;50.770;0.250;2023-06-22T09:36:24;3.50;;;3.15;;
5961;SDS011;3007;50.770;0.250;2023-06-22T09:38:51;3.40;;;2.78;;
5961;SDS011;3007;50.770;0.250;2023-06-22T09:41:20;4.60;;;2.92;;
5961;SDS011;3007;50.770;0.250;2023-06-22T09:43:47;3.35;;;2.67;;
5961;SDS011;3007;50.770;0.250;2023-06-22T09:46:16;3.10;;;2.67;;
5961;SDS011;3007;50.770;0.250;2023-06-22T09:48:43;2.55;;;2.30;;
5961;SDS011;3007;50.770;0.250;2023-06-22T09:51:10;2.90;;;2.38;;
5961;SDS011;3007;50.770;0.250;2023-06-22T09:53:37;2.70;;;2.30;;
5961;SDS011;3007;50.770;0.250;2023-06-22T09:56:04;2.38;;;2.03;;
5961;SDS011;3007;50.770;0.250;2023-06-22T09:58:31;2.72;;;2.03;;
5961;SDS011;3007;50.770;0.250;2023-06-22T10:00:58;1.80;;;1.70;;
5961;SDS011;3007;50.770;0.250;2023-06-22T10:03:26;2.33;;;2.13;;
5961;SDS011;3007;50.770;0.250;2023-06-22T10:05:53;2.22;;;1.95;;
5961;SDS011;3007;50.770;0.250;2023-06-22T10:08:20;2.55;;;2.05;;
5961;SDS011;3007;50.770;0.250;2023-06-22T10:10:47;2.92;;;2.25;;
5961;SDS011;3007;50.770;0.250;2023-06-22T10:13:13;2.53;;;2.33;;
5961;SDS011;3007;50.770;0.250;2023-06-22T10:15:41;3.85;;;2.40;;
5961;SDS011;3007;50.770;0.250;2023-06-22T10:18:10;5.13;;;2.47;;
5961;SDS011;3007;50.770;0.250;2023-06-22T10:20:38;4.05;;;2.55;;
5961;SDS011;3007;50.770;0.250;2023-06-22T10:23:05;4.03;;;3.30;;
5961;SDS011;3007;50.770;0.250;2023-06-22T10:25:32;3.40;;;2.50;;
5961;SDS011;3007;50.770;0.250;2023-06-22T10:27:59;3.03;;;2.22;;
5961;SDS011;3007;50.770;0.250;2023-06-22T10:30:26;6.88;;;4.57;;
5961;SDS011;3007;50.770;0.250;2023-06-22T10:32:54;6.15;;;4.95;;
5961;SDS011;3007;50.770;0.250;2023-06-22T10:35:20;6.30;;;4.50;;
5961;SDS011;3007;50.770;0.250;2023-06-22T10:37:49;5.50;;;4.03;;
5961;SDS011;3007;50.770;0.250;2023-06-22T10:40:16;5.53;;;4.18;;
5961;SDS011;3007;50.770;0.250;2023-06-22T10:42:44;7.05;;;5.63;;
5961;SDS011;3007;50.770;0.250;2023-06-22T10:45:11;7.25;;;5.75;;
5961;SDS011;3007;50.770;0.250;2023-06-22T10:47:38;5.47;;;4.90;;
5961;SDS011;3007;50.770;0.250;2023-06-22T10:50:07;5.88;;;5.32;;
5961;SDS011;3007;50.770;0.250;2023-06-22T10:52:34;8.15;;;6.05;;
5961;SDS011;3007;50.770;0.250;2023-06-22T10:55:03;6.53;;;5.90;;
5961;SDS011;3007;50.770;0.250;2023-06-22T10:57:30;7.45;;;6.22;;
5961;SDS011;3007;50.770;0.250;2023-06-22T10:59:57;9.77;;;8.43;;
5961;SDS011;3007;50.770;0.250;2023-06-22T11:02:23;8.05;;;7.07;;
5961;SDS011;3007;50.770;0.250;2023-06-22T11:04:53;7.82;;;7.03;;
5961;SDS011;3007;50.770;0.250;2023-06-22T11:07:20;9.75;;;7.20;;
5961;SDS011;3007;50.770;0.250;2023-06-22T11:09:47;7.78;;;7.07;;
5961;SDS011;3007;50.770;0.250;2023-06-22T11:12:15;10.05;;;7.28;;
5961;SDS011;3007;50.770;0.250;2023-06-22T11:14:42;8.85;;;6.82;;
5961;SDS011;3007;50.770;0.250;2023-06-22T11:17:09;6.88;;;6.05;;
5961;SDS011;3007;50.770;0.250;2023-06-22T11:19:35;7.55;;;6.35;;
5961;SDS011;3007;50.770;0.250;2023-06-22T11:22:02;6.70;;;6.10;;
5961;SDS011;3007;50.770;0.250;2023-06-22T11:24:29;6.78;;;6.03;;
5961;SDS011;3007;50.770;0.250;2023-06-22T11:26:56;7.20;;;6.50;;
5961;SDS011;3007;50.770;0.250;2023-06-22T11:29:24;7.20;;;5.20;;
5961;SDS011;3007;50.770;0.250;2023-06-22T11:31:51;5.80;;;4.93;;
5961;SDS011;3007;50.770;0.250;2023-06-22T11:34:18;6.47;;;5.88;;
5961;SDS011;3007;50.770;0.250;2023-06-22T11:36:45;6.32;;;5.53;;
5961;SDS011;3007;50.770;0.250;2023-06-22T11:39:13;6.18;;;4.95;;
5961;SDS011;3007;50.770;0.250;2023-06-22T11:41:40;6.20;;;5.60;;
5961;SDS011;3007;50.770;0.250;2023-06-22T11:44:07;7.50;;;5.13;;
5961;SDS011;3007;50.770;0.250;2023-06-22T11:46:36;7.18;;;6.13;;
5961;SDS011;3007;50.770;0.250;2023-06-22T11:49:03;8.32;;;6.20;;
5961;SDS011;3007;50.770;0.250;2023-06-22T11:51:30;7.80;;;6.28;;
5961;SDS011;3007;50.770;0.250;2023-06-22T11:53:57;5.85;;;5.03;;
5961;SDS011;3007;50.770;0.250;2023-06-22T11:56:24;6.47;;;4.85;;
5961;SDS011;3007;50.770;0.250;2023-06-22T11:58:52;6.25;;;5.03;;
5961;SDS011;3007;50.770;0.250;2023-06-22T12:01:19;6.53;;;4.80;;
5961;SDS011;3007;50.770;0.250;2023-06-22T12:03:48;5.18;;;4.57;;
5961;SDS011;3007;50.770;0.250;2023-06-22T12:06:14;6.60;;;4.47;;
5961;SDS011;3007;50.770;0.250;2023-06-22T12:08:41;6.38;;;4.40;;
5961;SDS011;3007;50.770;0.250;2023-06-22T12:11:08;4.25;;;3.88;;
5961;SDS011;3007;50.770;0.250;2023-06-22T12:13:35;5.10;;;4.00;;
5961;SDS011;3007;50.770;0.250;2023-06-22T12:16:02;5.75;;;4.22;;
5961;SDS011;3007;50.770;0.250;2023-06-22T12:18:29;5.85;;;4.15;;
5961;SDS011;3007;50.770;0.250;2023-06-22T12:20:57;5.28;;;4.35;;
5961;SDS011;3007;50.770;0.250;2023-06-22T12:23:24;6.43;;;4.00;;
5961;SDS011;3007;50.770;0.250;2023-06-22T12:25:51;4.15;;;3.80;;
5961;SDS011;3007;50.770;0.250;2023-06-22T12:28:18;5.20;;;4.22;;
5961;SDS011;3007;50.770;0.250;2023-06-22T12:30:45;4.75;;;3.72;;
5961;SDS011;3007;50.770;0.250;2023-06-22T12:33:13;4.18;;;3.78;;
5961;SDS011;3007;50.770;0.250;2023-06-22T12:35:43;5.82;;;4.65;;
5961;SDS011;3007;50.770;0.250;2023-06-22T12:38:12;5.63;;;4.40;;
5961;SDS011;3007;50.770;0.250;2023-06-22T12:40:39;5.60;;;4.97;;
5961;SDS011;3007;50.770;0.250;2023-06-22T12:43:06;7.07;;;4.90;;
5961;SDS011;3007;50.770;0.250;2023-06-22T12:45:33;9.65;;;6.03;;
5961;SDS011;3007;50.770;0.250;2023-06-22T12:48:00;6.10;;;5.50;;
5961;SDS011;3007;50.770;0.250;2023-06-22T12:50:27;6.60;;;5.30;;
5961;SDS011;3007;50.770;0.250;2023-06-22T12:52:54;8.38;;;5.35;;
5961;SDS011;3007;50.770;0.250;2023-06-22T12:55:22;8.25;;;6.00;;
5961;SDS011;3007;50.770;0.250;2023-06-22T12:57:49;6.38;;;5.53;;
5961;SDS011;3007;50.770;0.250;2023-06-22T13:00:16;8.35;;;6.10;;
5961;SDS011;3007;50.770;0.250;2023-06-22T13:02:43;7.93;;;6.55;;
5961;SDS011;3007;50.770;0.250;2023-06-22T13:05:10;7.50;;;6.43;;
5961;SDS011;3007;50.770;0.250;2023-06-22T13:07:37;10.02;;;7.10;;
5961;SDS011;3007;50.770;0.250;2023-06-22T13:10:04;13.23;;;7.20;;
5961;SDS011;3007;50.770;0.250;2023-06-22T13:12:33;7.85;;;7.05;;
5961;SDS011;3007;50.770;0.250;2023-06-22T13:15:00;9.15;;;8.00;;
5961;SDS011;3007;50.770;0.250;2023-06-22T13:17:28;7.55;;;6.75;;
5961;SDS011;3007;50.770;0.250;2023-06-22T13:19:55;9.32;;;7.63;;
5961;SDS011;3007;50.770;0.250;2023-06-22T13:22:28;9.75;;;7.30;;
5961;SDS011;3007;50.770;0.250;2023-06-22T13:24:56;10.27;;;7.05;;
5961;SDS011;3007;50.770;0.250;2023-06-22T13:27:27;52.65;;;12.27;;
5961;SDS011;3007;50.770;0.250;2023-06-22T13:29:55;9.25;;;6.95;;
5961;SDS011;3007;50.770;0.250;2023-06-22T13:32:22;8.05;;;6.63;;
5961;SDS011;3007;50.770;0.250;2023-06-22T13:34:49;8.70;;;6.32;;
5961;SDS011;3007;50.770;0.250;2023-06-22T13:37:16;8.30;;;6.10;;
5961;SDS011;3007;50.770;0.250;2023-06-22T13:39:45;7.55;;;6.00;;
5961;SDS011;3007;50.770;0.250;2023-06-22T13:42:12;74.55;;;15.60;;
5961;SDS011;3007;50.770;0.250;2023-06-22T13:44:39;9.63;;;7.75;;
5961;SDS011;3007;50.770;0.250;2023-06-22T13:47:07;13.05;;;7.80;;
5961;SDS011;3007;50.770;0.250;2023-06-22T13:49:34;11.68;;;7.25;;
5961;SDS011;3007;50.770;0.250;2023-06-22T13:52:01;8.43;;;6.82;;
5961;SDS011;3007;50.770;0.250;2023-06-22T13:54:29;13.73;;;7.18;;
5961;SDS011;3007;50.770;0.250;2023-06-22T13:56:56;14.75;;;8.18;;
5961;SDS011;3007;50.770;0.250;2023-06-22T13:59:22;10.18;;;6.63;;
5961;SDS011;3007;50.770;0.250;2023-06-22T14:01:51;8.52;;;6.82;;
5961;SDS011;3007;50.770;0.250;2023-06-22T14:04:19;8.07;;;6.32;;
5961;SDS011;3007;50.770;0.250;2023-06-22T14:06:47;7.57;;;5.82;;
5961;SDS011;3007;50.770;0.250;2023-06-22T14:09:14;6.95;;;6.13;;
5961;SDS011;3007;50.770;0.250;2023-06-22T14:11:41;9.80;;;6.82;;
5961;SDS011;3007;50.770;0.250;2023-06-22T14:14:08;8.75;;;6.45;;
5961;SDS011;3007;50.770;0.250;2023-06-22T14:16:35;8.40;;;6.35;;
5961;SDS011;3007;50.770;0.250;2023-06-22T14:19:02;65.00;;;12.95;;
5961;SDS011;3007;50.770;0.250;2023-06-22T14:21:30;9.07;;;6.78;;
5961;SDS011;3007;50.770;0.250;2023-06-22T14:23:57;26.80;;;8.43;;
5961;SDS011;3007;50.770;0.250;2023-06-22T14:26:24;7.10;;;6.00;;
5961;SDS011;3007;50.770;0.250;2023-06-22T14:28:51;6.97;;;6.18;;
5961;SDS011;3007;50.770;0.250;2023-06-22T14:31:19;10.98;;;6.00;;
5961;SDS011;3007;50.770;0.250;2023-06-22T14:33:46;8.52;;;6.45;;
5961;SDS011;3007;50.770;0.250;2023-06-22T14:36:14;6.75;;;5.80;;
5961;SDS011;3007;50.770;0.250;2023-06-22T14:38:43;7.85;;;6.43;;
5961;SDS011;3007;50.770;0.250;2023-06-22T14:41:11;10.02;;;6.93;;
5961;SDS011;3007;50.770;0.250;2023-06-22T14:43:38;8.20;;;6.03;;
5961;SDS011;3007;50.770;0.250;2023-06-22T14:46:05;8.57;;;5.82;;
5961;SDS011;3007;50.770;0.250;2023-06-22T14:48:31;10.90;;;7.07;;
5961;SDS011;3007;50.770;0.250;2023-06-22T14:50:58;10.50;;;6.40;;
5961;SDS011;3007;50.770;0.250;2023-06-22T14:53:26;9.48;;;6.68;;
5961;SDS011;3007;50.770;0.250;2023-06-22T14:55:54;8.82;;;6.30;;
5961;SDS011;3007;50.770;0.250;2023-06-22T14:58:21;8.30;;;6.28;;
5961;SDS011;3007;50.770;0.250;2023-06-22T15:00:48;8.10;;;6.32;;
5961;SDS011;3007;50.770;0.250;2023-06-22T15:03:15;6.63;;;5.90;;
5961;SDS011;3007;50.770;0.250;2023-06-22T15:05:46;8.43;;;6.40;;
5961;SDS011;3007;50.770;0.250;2023-06-22T15:08:13;7.15;;;6.20;;
5961;SDS011;3007;50.770;0.250;2023-06-22T15:10:40;9.05;;;6.38;;